Time;durP1;ratioP1;P1;durP2;ratioP2;P2;SDS_P1;SDS_P2;PMS_P1;PMS_P2;Temp;Humidity;BMP_temperature;BMP_pressure;BME280_temperature;BME280_humidity;BME280_pressure;Samples;Min_cycle;Max_cycle;Signal;HPM_P1;HPM_P2
2022/01/22 00:00:36;;;;;;;1.40;0.77;;;0.80;67.00;0.20;97269.00;;;;5003616;28;20946;-84
2022/01/22 00:03:25;;;;;;;0.60;0.60;;;0.80;67.90;0.30;97249.00;;;;5004199;28;20849;-83
2022/01/22 00:06:14;;;;;;;0.83;0.80;;;1.10;67.50;0.10;97260.00;;;;4996627;28;20444;-83
2022/01/22 00:09:04;;;;;;;0.63;0.63;;;1.00;68.10;-0.20;97231.00;;;;5003362;28;20425;-85
2022/01/22 00:11:54;;;;;;;0.80;0.80;;;0.80;69.00;-0.30;97229.00;;;;5008980;28;20431;-83
2022/01/22 00:14:43;;;;;;;0.60;0.60;;;0.50;69.90;-0.50;97234.00;;;;5003376;28;20986;-83
2022/01/22 00:17:33;;;;;;;0.67;0.60;;;0.30;70.40;-0.40;97225.00;;;;5000958;28;20461;-83
2022/01/22 00:20:25;;;;;;;0.60;0.60;;;0.20;70.20;-0.40;97238.00;;;;5007116;28;20441;-83
2022/01/22 00:23:16;;;;;;;0.67;0.60;;;0.40;70.20;-0.60;97246.00;;;;5000438;28;20453;-83
2022/01/22 00:26:04;;;;;;;0.60;0.60;;;0.10;70.30;-0.50;97244.00;;;;5007712;28;20440;-83
2022/01/22 00:28:53;;;;;;;0.67;0.67;;;0.20;70.50;-0.50;97220.00;;;;5005850;28;20946;-82
2022/01/22 00:31:42;;;;;;;0.83;0.83;;;0.30;70.00;-0.60;97208.00;;;;5013022;28;20800;-83
2022/01/22 00:34:32;;;;;;;0.60;0.60;;;0.00;70.50;-0.50;97204.00;;;;5012158;28;20453;-84
2022/01/22 00:37:21;;;;;;;0.87;0.73;;;0.30;69.00;-0.40;97193.00;;;;5007422;28;20858;-84
2022/01/22 00:40:11;;;;;;;0.50;0.50;;;0.00;68.70;-0.50;97192.00;;;;5003894;28;20438;-83
2022/01/22 00:43:00;;;;;;;0.50;0.50;;;0.00;68.90;-0.50;97194.00;;;;5006549;28;20455;-83
2022/01/22 00:45:49;;;;;;;2.10;0.70;;;0.00;69.40;-0.40;97185.00;;;;5001988;28;20464;-83
2022/01/22 00:48:38;;;;;;;0.47;0.47;;;0.00;68.60;-0.50;97178.00;;;;5000435;28;20441;-84
2022/01/22 00:51:28;;;;;;;0.57;0.57;;;0.00;69.80;-0.30;97191.00;;;;5003213;28;20443;-83
2022/01/22 00:54:17;;;;;;;0.50;0.50;;;0.10;68.70;0.10;97188.00;;;;5004239;28;20450;-83
2022/01/22 00:57:06;;;;;;;0.43;0.43;;;0.10;69.20;0.40;97188.00;;;;5008062;28;21012;-84
2022/01/22 00:59:57;;;;;;;0.40;0.40;;;1.00;69.70;0.10;97177.00;;;;5009439;28;20800;-83
2022/01/22 01:02:47;;;;;;;0.60;0.60;;;0.50;69.20;-0.10;97170.00;;;;5005343;28;20455;-84
2022/01/22 01:05:36;;;;;;;0.60;0.60;;;0.50;69.80;-0.50;97167.00;;;;4998730;28;20457;-84
2022/01/22 01:08:27;;;;;;;1.17;0.50;;;0.30;70.30;-0.60;97179.00;;;;5000499;28;20461;-84
2022/01/22 01:11:17;;;;;;;1.57;0.60;;;0.10;71.20;-0.70;97156.00;;;;5005851;28;20432;-84
2022/01/22 01:14:09;;;;;;;0.63;0.63;;;0.00;71.80;-0.80;97153.00;;;;5004076;28;20457;-84
2022/01/22 01:17:10;;;;;;;0.70;0.70;;;-0.10;72.00;-0.90;97159.00;;;;5001737;28;20455;-83
2022/01/22 01:32:33;;;;;;;1.70;1.00;;;-0.70;74.80;-1.40;97133.00;;;;4996906;28;20959;-83
2022/01/22 01:35:23;;;;;;;1.40;0.80;;;-0.30;75.00;-1.40;97128.00;;;;5006382;28;20428;-83
2022/01/22 01:38:11;;;;;;;3.70;0.83;;;-0.80;76.10;-1.70;97127.00;;;;5011918;28;20468;-84
2022/01/22 01:41:08;;;;;;;1.23;0.70;;;-0.90;76.40;-1.90;97114.00;;;;5009355;28;20433;-83
2022/01/22 01:43:58;;;;;;;5.37;1.20;;;-0.90;76.70;-1.90;97108.00;;;;5007006;28;20464;-83
2022/01/22 01:46:51;;;;;;;0.83;0.83;;;-1.10;77.40;-1.80;97110.00;;;;5004894;28;20434;-83
2022/01/22 01:49:40;;;;;;;0.90;0.70;;;-1.20;77.40;-1.90;97095.00;;;;5004192;28;20623;-83
2022/01/22 01:52:40;;;;;;;0.70;0.57;;;-1.30;77.90;-2.50;97083.00;;;;5000518;28;20426;-82
2022/01/22 01:55:36;;;;;;;1.90;1.47;;;-1.40;79.40;-2.50;97092.00;;;;5000973;28;20824;-82
2022/01/22 01:58:25;;;;;;;1.77;1.13;;;-1.60;80.20;-2.20;97086.00;;;;5008119;28;20466;-83
2022/01/22 02:01:15;;;;;;;2.63;1.40;;;-1.60;80.20;-2.50;97079.00;;;;5002721;28;20454;-82
2022/01/22 02:04:05;;;;;;;1.10;1.00;;;-1.70;81.30;-2.50;97070.00;;;;5005283;28;20469;-82
2022/01/22 02:06:55;;;;;;;1.27;1.17;;;-1.70;81.70;-2.30;97070.00;;;;5004394;28;20447;-83
2022/01/22 02:09:44;;;;;;;1.30;1.10;;;-1.70;81.60;-2.30;97059.00;;;;5000644;28;20476;-82
2022/01/22 02:12:58;;;;;;;1.73;0.97;;;-1.70;82.60;-2.70;97069.00;;;;4996660;28;20472;-83
2022/01/22 02:25:23;;;;;;;1.20;1.10;;;-2.00;84.20;-2.80;97040.00;;;;4999612;28;20457;-83
2022/01/22 02:28:13;;;;;;;2.80;1.00;;;-1.70;85.60;-2.90;97014.00;;;;5002322;28;20477;-83
2022/01/22 02:31:10;;;;;;;1.07;1.03;;;-2.00;85.30;-2.80;97016.00;;;;5001821;28;20433;-83
2022/01/22 02:34:08;;;;;;;1.20;1.10;;;-2.20;85.60;-2.60;97012.00;;;;5007245;28;20449;-82
2022/01/22 02:37:02;;;;;;;1.17;1.13;;;-2.10;86.00;-2.80;96996.00;;;;5005432;28;20445;-82
2022/01/22 02:40:02;;;;;;;1.10;1.10;;;-2.10;87.20;-3.00;96984.00;;;;5003871;28;20437;-83
2022/01/22 02:42:51;;;;;;;0.80;0.80;;;-2.20;88.20;-2.90;96985.00;;;;5004407;28;20429;-82
2022/01/22 02:45:42;;;;;;;1.43;0.93;;;-2.20;88.50;-2.90;96999.00;;;;5005200;28;20808;-82
2022/01/22 02:48:31;;;;;;;1.23;1.07;;;-2.30;88.30;-2.80;96983.00;;;;5005209;28;20879;-82
2022/01/22 02:51:19;;;;;;;0.90;0.90;;;-2.20;89.60;-2.90;96988.00;;;;5011250;28;20963;-82
2022/01/22 02:54:08;;;;;;;0.80;0.80;;;-2.20;89.20;-2.90;96963.00;;;;4998930;28;20892;-82
2022/01/22 02:56:59;;;;;;;0.73;0.73;;;-2.20;88.60;-2.80;96978.00;;;;5009723;28;20457;-83
2022/01/22 02:59:47;;;;;;;1.17;0.90;;;-2.20;89.50;-2.80;96965.00;;;;5006216;28;20476;-82
2022/01/22 03:02:36;;;;;;;0.87;0.83;;;-2.30;89.50;-2.80;96966.00;;;;5004242;28;20449;-82
2022/01/22 03:05:25;;;;;;;0.60;0.60;;;-2.30;90.10;-2.90;96963.00;;;;5006298;28;20445;-82
2022/01/22 03:08:15;;;;;;;0.70;0.70;;;-2.30;90.10;-3.00;96963.00;;;;4999902;28;20481;-83
2022/01/22 03:11:15;;;;;;;0.73;0.63;;;-2.30;90.60;-3.00;96950.00;;;;5004658;28;20948;-82
2022/01/22 03:17:29;;;;;;;1.13;1.03;;;-2.40;91.20;-2.90;96959.00;;;;5005507;28;20425;-82
2022/01/22 03:20:36;;;;;;;1.67;1.17;;;-2.40;91.60;-3.30;96944.00;;;;5001576;28;20433;-82
2022/01/22 03:29:40;;;;;;;0.60;0.60;;;-2.60;92.40;-3.10;96927.00;;;;5002291;28;20472;-83
2022/01/22 03:32:35;;;;;;;1.80;1.00;;;-2.60;92.70;-3.30;96903.00;;;;5002447;28;20450;-82
2022/01/22 03:35:27;;;;;;;1.07;1.03;;;-2.60;93.30;-3.50;96916.00;;;;5004024;28;21021;-82
2022/01/22 03:38:16;;;;;;;0.70;0.70;;;-2.60;93.80;-3.30;96929.00;;;;5002920;28;20430;-81
2022/01/22 03:41:05;;;;;;;1.10;1.03;;;-2.60;94.00;-3.10;96924.00;;;;4997828;28;20425;-83
2022/01/22 03:43:54;;;;;;;1.43;1.10;;;-2.50;94.10;-3.00;96926.00;;;;5008677;28;20463;-83
2022/01/22 03:46:45;;;;;;;1.13;0.73;;;-2.60;94.50;-3.00;96913.00;;;;5000853;28;20829;-83
2022/01/22 03:49:34;;;;;;;1.73;0.80;;;-2.50;94.80;-3.30;96898.00;;;;5004954;28;20982;-83
2022/01/22 03:52:22;;;;;;;0.73;0.73;;;-2.00;95.20;-2.90;96902.00;;;;5002595;28;20448;-83
2022/01/22 03:55:22;;;;;;;0.90;0.70;;;-2.50;94.70;-2.80;96910.00;;;;5006925;28;20433;-82
2022/01/22 03:58:11;;;;;;;0.63;0.63;;;-2.40;94.90;-2.90;96925.00;;;;5005399;28;20440;-82
2022/01/22 04:01:24;;;;;;;1.17;1.07;;;-2.30;95.30;-3.00;96905.00;;;;5009110;28;20429;-83
2022/01/22 04:04:18;;;;;;;0.43;0.43;;;-2.30;95.40;-2.90;96898.00;;;;5001878;28;20856;-82
2022/01/22 04:10:27;;;;;;;1.90;1.10;;;-1.70;95.50;-2.60;96885.00;;;;4997642;28;20571;-82
2022/01/22 04:13:19;;;;;;;0.70;0.70;;;-2.20;95.50;-2.60;96896.00;;;;4998521;28;20453;-83
2022/01/22 04:16:08;;;;;;;2.23;1.37;;;-2.20;95.90;-2.40;96889.00;;;;4994627;28;20438;-82
2022/01/22 04:25:18;;;;;;;0.60;0.60;;;-2.00;96.70;-2.40;96873.00;;;;4999916;28;20441;-82
2022/01/22 04:28:07;;;;;;;1.73;1.63;;;-1.90;96.60;-2.80;96869.00;;;;5000912;28;20434;-83
2022/01/22 04:30:55;;;;;;;1.03;0.87;;;-1.90;96.70;-2.40;96864.00;;;;5000418;28;20440;-83
2022/01/22 04:33:44;;;;;;;1.63;0.87;;;-2.00;96.70;-2.30;96877.00;;;;4997601;28;20896;-82
2022/01/22 04:36:33;;;;;;;0.87;0.87;;;-1.90;97.10;-2.20;96872.00;;;;5006925;28;20434;-82
2022/01/22 04:39:25;;;;;;;1.27;1.17;;;-1.90;97.40;-2.20;96864.00;;;;5015504;28;20441;-83
2022/01/22 04:42:14;;;;;;;1.77;1.37;;;-1.20;97.20;-2.10;96842.00;;;;5012352;28;20445;-82
2022/01/22 04:45:11;;;;;;;0.63;0.63;;;-1.80;97.10;-2.10;96864.00;;;;5010239;28;20441;-84
2022/01/22 04:48:13;;;;;;;2.33;0.83;;;-1.80;97.20;-2.10;96856.00;;;;5004695;28;20449;-82
2022/01/22 04:57:17;;;;;;;1.90;0.90;;;-1.70;98.40;-2.10;96868.00;;;;5005760;28;20819;-82
2022/01/22 05:00:11;;;;;;;0.60;0.60;;;-1.70;98.70;-2.10;96859.00;;;;5010347;28;20448;-83
2022/01/22 05:02:59;;;;;;;1.70;1.03;;;-1.70;98.60;-2.10;96859.00;;;;5012417;28;20465;-82
2022/01/22 05:05:48;;;;;;;3.27;1.77;;;-0.90;98.40;-2.00;96844.00;;;;5007786;28;20950;-82
2022/01/22 05:08:37;;;;;;;0.87;0.87;;;-1.60;98.10;-2.00;96861.00;;;;5013159;28;20956;-82
2022/01/22 05:11:26;;;;;;;1.27;1.00;;;-1.60;98.30;-2.20;96842.00;;;;5012153;28;20430;-83
2022/01/22 05:14:16;;;;;;;1.93;1.10;;;-1.60;98.70;-2.10;96864.00;;;;5000322;28;20975;-83
2022/01/22 05:17:07;;;;;;;2.87;1.10;;;-1.60;99.10;-2.00;96850.00;;;;5002809;28;20942;-82
2022/01/22 05:20:02;;;;;;;1.50;1.40;;;-1.60;99.50;-2.00;96842.00;;;;5014049;28;20811;-82
2022/01/22 05:23:00;;;;;;;1.13;1.13;;;-1.60;99.30;-2.20;96841.00;;;;5015201;28;20449;-83
2022/01/22 05:25:54;;;;;;;1.57;1.40;;;-1.60;99.10;-2.20;96847.00;;;;5011159;28;20433;-82
2022/01/22 05:38:17;;;;;;;1.13;1.03;;;-1.80;99.90;-2.40;96828.00;;;;4953352;28;20440;-84
2022/01/22 05:41:06;;;;;;;3.33;1.00;;;-1.70;99.90;-2.50;96838.00;;;;5014802;28;20434;-82
2022/01/22 05:43:55;;;;;;;1.63;1.10;;;-1.80;99.90;-2.10;96851.00;;;;5015095;28;20985;-84
2022/01/22 05:46:44;;;;;;;1.37;1.27;;;-1.70;99.90;-2.00;96852.00;;;;5014554;28;20444;-82
2022/01/22 05:49:40;;;;;;;0.83;0.80;;;-1.70;99.90;-1.90;96841.00;;;;5015202;28;20477;-83
2022/01/22 05:52:35;;;;;;;0.80;0.80;;;-1.60;99.90;-2.20;96857.00;;;;5009424;28;20422;-82
2022/01/22 06:01:35;;;;;;;1.50;1.40;;;-1.50;99.90;-1.90;96840.00;;;;5014234;28;20437;-82
2022/01/22 06:04:25;;;;;;;0.67;0.67;;;-1.50;99.90;-2.10;96830.00;;;;5015675;28;20476;-83
2022/01/22 06:07:16;;;;;;;1.53;1.00;;;-1.40;99.90;-1.90;96859.00;;;;5015289;28;20434;-83
2022/01/22 06:10:16;;;;;;;1.10;1.00;;;-1.10;99.90;-2.10;96858.00;;;;5014746;28;20876;-82
2022/01/22 06:13:13;;;;;;;3.77;1.20;;;-1.40;99.90;-2.00;96849.00;;;;5010601;28;20453;-83
2022/01/22 06:16:02;;;;;;;2.73;2.53;;;-1.20;99.90;-1.80;96844.00;;;;5013142;28;20437;-82
2022/01/22 06:18:51;;;;;;;2.50;1.20;;;-1.40;99.90;-1.70;96858.00;;;;5007025;28;20425;-83
2022/01/22 06:21:40;;;;;;;1.50;1.40;;;-1.40;99.90;-1.80;96872.00;;;;5015490;28;20441;-83
2022/01/22 06:24:30;;;;;;;4.97;3.00;;;-1.40;99.90;-2.10;96860.00;;;;5017309;28;20453;-83
2022/01/22 06:27:20;;;;;;;8.77;2.63;;;-0.10;99.90;-1.80;96863.00;;;;5008145;28;20426;-83
2022/01/22 06:30:11;;;;;;;3.27;2.53;;;-1.40;99.90;-1.70;96869.00;;;;5004962;28;20461;-83
2022/01/22 06:33:00;;;;;;;2.57;2.47;;;-1.40;99.90;-1.90;96886.00;;;;5005491;28;20457;-83
2022/01/22 06:35:49;;;;;;;3.23;2.93;;;-1.40;99.90;-1.70;96876.00;;;;5016843;28;20425;-83
2022/01/22 06:38:38;;;;;;;3.77;3.43;;;-1.30;99.90;-1.70;96877.00;;;;5016219;28;20520;-82
2022/01/22 06:41:45;;;;;;;6.07;2.10;;;-1.30;99.90;-1.50;96885.00;;;;5013414;28;20782;-82
2022/01/22 06:44:35;;;;;;;1.90;1.73;;;-1.30;99.90;-1.30;96898.00;;;;5017790;28;20459;-83
2022/01/22 06:47:24;;;;;;;1.97;1.10;;;-1.20;99.90;-1.00;96896.00;;;;5016081;28;20445;-84
2022/01/22 06:50:12;;;;;;;3.90;3.60;;;-1.00;99.90;-1.50;96887.00;;;;5015230;28;20488;-82
2022/01/22 06:53:01;;;;;;;1.73;1.63;;;-0.90;99.90;-2.00;96880.00;;;;5000819;28;20476;-83
2022/01/22 06:55:55;;;;;;;0.80;0.80;;;-0.90;99.90;-2.00;96870.00;;;;5003759;28;20426;-82
2022/01/22 06:58:46;;;;;;;0.80;0.80;;;-1.00;99.90;-1.90;96854.00;;;;5017422;28;20429;-83
2022/01/22 07:01:34;;;;;;;0.80;0.80;;;-1.10;99.90;-1.50;96877.00;;;;5007640;28;20450;-83
2022/01/22 07:04:23;;;;;;;1.80;1.50;;;-1.00;99.90;-1.40;96858.00;;;;5017987;28;20450;-83
2022/01/22 07:07:12;;;;;;;1.60;1.50;;;-0.30;99.90;-1.20;96867.00;;;;5015036;28;20433;-83
2022/01/22 07:10:01;;;;;;;1.27;1.10;;;-0.90;99.90;-1.00;96891.00;;;;5015011;28;20488;-83
2022/01/22 07:12:50;;;;;;;2.40;1.10;;;-0.60;99.90;-1.10;96899.00;;;;5010484;28;20450;-83
2022/01/22 07:15:40;;;;;;;2.63;1.50;;;-0.80;99.90;-1.00;96895.00;;;;5016398;28;20437;-82
2022/01/22 07:18:29;;;;;;;1.10;1.00;;;-0.70;99.90;-0.90;96879.00;;;;5003140;28;20491;-82
2022/01/22 07:21:20;;;;;;;1.40;1.30;;;-0.70;99.90;-0.70;96871.00;;;;5011560;28;20437;-83
2022/01/22 07:24:26;;;;;;;1.73;1.50;;;-0.60;99.90;-0.60;96889.00;;;;5015959;28;20453;-84
2022/01/22 07:27:15;;;;;;;2.07;1.23;;;-0.50;99.90;-0.60;96880.00;;;;5011732;28;20514;-83
2022/01/22 07:30:06;;;;;;;1.10;1.03;;;-0.40;99.90;-0.40;96887.00;;;;5007859;28;20488;-84
2022/01/22 07:32:56;;;;;;;1.43;1.33;;;-0.30;99.90;-0.50;96898.00;;;;5017850;28;20437;-84
2022/01/22 07:35:45;;;;;;;1.53;1.43;;;-0.10;99.90;-0.50;96897.00;;;;5027919;28;20945;-83
2022/01/22 07:38:37;;;;;;;3.43;1.90;;;0.00;99.90;-0.50;96899.00;;;;5018666;28;20433;-84
2022/01/22 07:41:26;;;;;;;2.40;0.63;;;-0.20;99.90;-0.80;96889.00;;;;5009250;28;20477;-84
2022/01/22 07:44:15;;;;;;;1.13;0.83;;;-0.10;99.90;-0.70;96884.00;;;;5024166;28;20453;-83
2022/01/22 07:47:04;;;;;;;2.43;1.23;;;-0.20;99.90;-0.10;96883.00;;;;5018056;28;20464;-84
2022/01/22 07:49:55;;;;;;;3.00;1.13;;;-0.10;99.90;-0.30;96879.00;;;;5018945;28;20504;-84
2022/01/22 07:52:43;;;;;;;1.07;1.00;;;0.00;99.90;-0.50;96895.00;;;;5008876;28;20844;-83
2022/01/22 07:55:33;;;;;;;2.13;1.90;;;0.10;99.90;-0.10;96883.00;;;;5017641;28;20429;-84
2022/01/22 07:58:21;;;;;;;2.10;1.90;;;0.20;99.90;0.30;96892.00;;;;5014664;28;20430;-84
2022/01/22 08:01:10;;;;;;;9.43;2.37;;;0.30;99.90;0.40;96872.00;;;;5011454;28;20950;-83
2022/01/22 08:04:00;;;;;;;2.10;1.90;;;0.70;99.90;1.00;96876.00;;;;5009479;28;20465;-84
2022/01/22 08:06:51;;;;;;;1.57;1.47;;;1.00;99.90;1.30;96868.00;;;;5021170;28;20425;-84
2022/01/22 08:09:40;;;;;;;1.50;1.27;;;0.90;99.90;1.80;96877.00;;;;5022124;28;20440;-84
2022/01/22 08:12:28;;;;;;;0.70;0.70;;;1.20;99.90;2.20;96872.00;;;;5018784;28;20472;-84
2022/01/22 08:15:18;;;;;;;1.43;0.40;;;1.80;99.90;2.70;96890.00;;;;5009052;28;20430;-84
2022/01/22 08:18:08;;;;;;;0.80;0.50;;;2.00;99.90;2.90;96868.00;;;;5023253;28;20440;-84
2022/01/22 08:20:56;;;;;;;0.40;0.40;;;2.30;99.90;3.30;96881.00;;;;5019990;28;20429;-84
2022/01/22 08:23:46;;;;;;;0.40;0.40;;;2.60;99.90;3.70;96898.00;;;;5006097;28;20600;-85
2022/01/22 08:26:39;;;;;;;0.30;0.30;;;3.00;99.90;3.90;96873.00;;;;5010574;28;20471;-86
2022/01/22 08:29:28;;;;;;;1.60;0.30;;;3.40;99.90;4.20;96888.00;;;;5008337;28;20938;-87
2022/01/22 08:38:35;;;;;;;0.60;0.40;;;4.30;99.90;4.80;96863.00;;;;5011630;28;20935;-88
2022/01/22 08:41:25;;;;;;;0.37;0.30;;;4.60;99.90;4.90;96893.00;;;;5004045;28;20461;-86
2022/01/22 08:44:14;;;;;;;0.90;0.50;;;4.70;99.90;5.20;96891.00;;;;4999992;28;20234;-84
2022/01/22 08:47:04;;;;;;;0.30;0.30;;;4.90;99.90;5.10;96892.00;;;;5001692;28;20448;-84
2022/01/22 08:49:53;;;;;;;0.33;0.27;;;5.00;99.90;5.30;96899.00;;;;5001925;28;20206;-85
2022/01/22 08:52:42;;;;;;;1.23;1.13;;;5.20;99.90;5.30;96903.00;;;;5004865;28;20237;-84
2022/01/22 08:55:34;;;;;;;7.17;3.50;;;5.30;99.90;5.40;96887.00;;;;5006118;28;20194;-90
2022/01/22 08:58:24;;;;;;;2.77;1.63;;;5.40;99.90;5.60;96906.00;;;;5004839;28;20209;-85
2022/01/22 09:01:14;;;;;;;3.27;1.67;;;5.50;99.90;5.60;96896.00;;;;5003420;28;20209;-83
2022/01/22 09:04:03;;;;;;;0.43;0.43;;;5.60;99.90;5.60;96890.00;;;;5013230;28;20248;-86
2022/01/22 09:06:52;;;;;;;2.93;1.47;;;5.60;99.90;5.40;96894.00;;;;5003423;28;20589;-83
2022/01/22 09:09:42;;;;;;;0.90;0.60;;;5.70;99.90;5.80;96914.00;;;;5004675;28;20213;-86
2022/01/22 09:12:31;;;;;;;2.03;1.30;;;5.80;99.90;6.10;96900.00;;;;5004521;28;20218;-87
2022/01/22 09:15:22;;;;;;;0.33;0.23;;;5.90;99.90;6.00;96888.00;;;;5000913;28;20240;-85
2022/01/22 09:18:11;;;;;;;0.37;0.37;;;5.90;99.90;6.10;96903.00;;;;5001738;28;20232;-83
2022/01/22 09:21:04;;;;;;;0.47;0.37;;;6.00;99.90;6.00;96889.00;;;;5004015;28;20232;-84
2022/01/22 09:23:53;;;;;;;0.33;0.33;;;6.00;99.90;6.00;96921.00;;;;5002017;28;20276;-84
2022/01/22 09:26:43;;;;;;;0.20;0.20;;;6.10;99.90;5.80;96919.00;;;;5006059;28;20320;-84
2022/01/22 09:29:36;;;;;;;0.20;0.20;;;6.10;99.90;5.90;96904.00;;;;5002442;28;20210;-90
2022/01/22 09:32:27;;;;;;;0.50;0.40;;;6.20;99.90;6.50;96935.00;;;;5006902;28;20238;-84
2022/01/22 09:35:16;;;;;;;0.60;0.60;;;6.20;99.90;6.30;96920.00;;;;4999810;28;20669;-89
2022/01/22 09:38:06;;;;;;;0.53;0.30;;;6.40;97.10;6.60;96918.00;;;;5000364;28;20212;-86
2022/01/22 09:40:54;;;;;;;0.30;0.30;;;6.50;96.70;6.50;96929.00;;;;5002961;28;20207;-84
2022/01/22 09:43:43;;;;;;;0.50;0.30;;;6.60;94.10;6.40;96921.00;;;;4998392;28;20231;-85
2022/01/22 09:46:43;;;;;;;3.93;0.30;;;6.70;93.50;6.60;96911.00;;;;5004585;28;20216;-87
2022/01/22 09:49:34;;;;;;;0.30;0.30;;;6.70;93.40;6.70;96885.00;;;;5003980;28;20389;-83
2022/01/22 09:52:23;;;;;;;0.83;0.23;;;6.70;92.30;7.10;96935.00;;;;5007953;28;20221;-85
2022/01/22 09:55:16;;;;;;;0.30;0.20;;;6.80;92.30;7.00;96906.00;;;;5003066;28;20232;-85
2022/01/22 09:58:05;;;;;;;1.03;0.30;;;6.90;91.00;7.00;96907.00;;;;5006785;28;20211;-83
2022/01/22 10:00:58;;;;;;;2.17;0.50;;;7.00;90.10;7.30;96916.00;;;;5007143;28;20229;-85
2022/01/22 10:03:48;;;;;;;0.20;0.20;;;7.10;88.90;7.10;96909.00;;;;5004702;28;20380;-86
2022/01/22 10:06:52;;;;;;;0.30;0.30;;;7.20;88.20;7.30;96933.00;;;;5002763;28;20202;-84
2022/01/22 10:09:56;;;;;;;0.20;0.20;;;7.30;88.30;7.60;96896.00;;;;5001076;28;20691;-85
2022/01/22 10:12:47;;;;;;;0.40;0.40;;;7.40;87.90;7.50;96894.00;;;;5001672;28;20230;-87
2022/01/22 10:15:39;;;;;;;0.40;0.23;;;7.50;87.90;7.40;96921.00;;;;5007614;28;20756;-82
2022/01/22 10:18:28;;;;;;;0.30;0.30;;;7.50;86.50;7.70;96932.00;;;;5000978;28;20209;-84
2022/01/22 10:21:17;;;;;;;0.20;0.20;;;7.50;88.50;7.70;96905.00;;;;5002580;28;20314;-87
2022/01/22 10:24:36;;;;;;;1.40;0.53;;;7.60;87.30;7.40;96947.00;;;;5003781;28;20240;-86
2022/01/22 10:27:31;;;;;;;0.33;0.30;;;7.60;86.80;7.10;96928.00;;;;4994786;28;20222;-86
2022/01/22 10:30:20;;;;;;;0.30;0.30;;;7.50;85.40;7.20;96924.00;;;;5000283;28;20206;-86
2022/01/22 10:33:24;;;;;;;0.20;0.20;;;7.50;85.80;7.70;96942.00;;;;4997255;28;20716;-90
2022/01/22 10:36:17;;;;;;;0.20;0.20;;;7.60;85.90;7.40;96921.00;;;;5003393;28;20631;-85
2022/01/22 10:39:12;;;;;;;0.20;0.20;;;7.80;82.00;8.60;96926.00;;;;5003820;28;20711;-91
2022/01/22 10:42:02;;;;;;;0.20;0.20;;;8.30;81.60;9.00;96927.00;;;;5005410;28;20208;-88
2022/01/22 10:44:51;;;;;;;0.23;0.23;;;9.00;78.50;8.60;96952.00;;;;4998612;28;20218;-89
2022/01/22 10:47:40;;;;;;;0.40;0.40;;;9.40;75.70;8.90;96970.00;;;;4998185;28;20446;-87
2022/01/22 10:50:29;;;;;;;0.20;0.10;;;9.40;74.90;8.00;96954.00;;;;5001534;28;20221;-85
2022/01/22 10:53:19;;;;;;;0.27;0.23;;;9.50;72.30;9.00;96971.00;;;;5005933;28;20268;-88
2022/01/22 10:56:09;;;;;;;3.17;0.30;;;9.60;73.20;8.20;97003.00;;;;4998407;28;20289;-85
2022/01/22 10:59:02;;;;;;;0.30;0.30;;;9.40;73.40;7.40;96969.00;;;;5000835;28;20217;-88
2022/01/22 11:01:54;;;;;;;1.03;0.30;;;8.60;75.10;7.70;96966.00;;;;4999867;28;20216;-86
2022/01/22 11:04:45;;;;;;;0.40;0.30;;;8.50;76.80;8.50;96960.00;;;;5004200;28;20229;-85
2022/01/22 11:07:34;;;;;;;0.20;0.20;;;8.40;77.40;8.90;96956.00;;;;5001131;28;20232;-85
2022/01/22 11:10:26;;;;;;;0.20;0.20;;;8.70;75.60;8.60;96931.00;;;;4997215;28;20205;-87
2022/01/22 11:13:19;;;;;;;0.20;0.20;;;8.90;74.40;9.00;96920.00;;;;4999725;28;20225;-89
2022/01/22 11:16:11;;;;;;;0.30;0.30;;;10.00;73.10;9.70;96952.00;;;;4999641;28;20667;-87
2022/01/22 11:19:02;;;;;;;0.30;0.30;;;9.60;72.70;9.70;96945.00;;;;5002660;28;20618;-85
2022/01/22 11:21:54;;;;;;;0.60;0.47;;;10.00;69.60;10.10;96935.00;;;;4997297;28;20206;-86
2022/01/22 11:24:46;;;;;;;0.20;0.20;;;10.20;68.20;10.40;96965.00;;;;4998714;28;20218;-92
2022/01/22 11:27:37;;;;;;;0.30;0.30;;;10.50;66.90;11.70;96963.00;;;;4996650;28;20214;-90
2022/01/22 11:30:28;;;;;;;0.37;0.23;;;11.10;66.80;10.40;96945.00;;;;5003114;28;20252;-86
2022/01/22 11:33:21;;;;;;;0.40;0.30;;;11.20;63.00;10.00;96953.00;;;;5002119;28;20233;-87
2022/01/22 11:36:20;;;;;;;0.30;0.30;;;11.00;61.70;10.40;96945.00;;;;4998465;28;20363;-87
2022/01/22 11:39:20;;;;;;;0.60;0.20;;;11.00;62.30;11.40;96989.00;;;;5004218;28;20202;-89
2022/01/22 11:42:09;;;;;;;0.40;0.30;;;11.20;62.50;11.20;96969.00;;;;4994952;28;20280;-88
2022/01/22 11:45:02;;;;;;;3.50;0.30;;;11.40;61.20;10.60;96967.00;;;;5004706;28;20237;-89
2022/01/22 11:48:16;;;;;;;0.27;0.20;;;11.50;59.50;10.60;96971.00;;;;4998698;28;20276;-89
2022/01/22 11:51:24;;;;;;;0.20;0.20;;;11.50;59.80;9.80;96966.00;;;;4996240;28;20204;-90
2022/01/22 11:54:14;;;;;;;0.20;0.20;;;11.40;58.70;10.00;96946.00;;;;5004639;28;20283;-89
2022/01/22 11:57:16;;;;;;;0.33;0.20;;;12.00;58.50;10.30;96957.00;;;;5002124;28;20209;-83
2022/01/22 12:00:24;;;;;;;0.40;0.33;;;11.00;58.30;10.10;96987.00;;;;4996301;28;20204;-87
2022/01/22 12:03:21;;;;;;;0.40;0.30;;;11.10;56.90;10.90;96987.00;;;;5002396;28;20233;-85
2022/01/22 12:06:26;;;;;;;0.40;0.30;;;11.30;57.20;10.80;96976.00;;;;5001501;28;20218;-88
2022/01/22 12:09:26;;;;;;;0.87;0.40;;;11.50;55.90;10.30;96936.00;;;;4996974;28;20206;-83
2022/01/22 12:15:55;;;;;;;0.20;0.20;;;11.80;56.00;11.30;96956.00;;;;5002073;28;20214;-86
2022/01/22 12:18:56;;;;;;;0.40;0.40;;;12.50;53.40;13.10;96969.00;;;;4993940;28;20703;-85
2022/01/22 12:21:46;;;;;;;0.30;0.20;;;12.80;53.60;14.70;96985.00;;;;5001946;28;20203;-85
2022/01/22 12:24:35;;;;;;;3.20;0.27;;;13.70;54.10;14.00;96991.00;;;;4994311;28;20222;-84
2022/01/22 12:27:45;;;;;;;0.70;0.30;;;14.30;50.40;13.50;96978.00;;;;5004294;28;20216;-86
2022/01/22 12:30:38;;;;;;;0.20;0.20;;;14.30;49.80;15.40;97022.00;;;;5002926;28;20710;-86
2022/01/22 12:33:48;;;;;;;0.30;0.23;;;14.70;50.30;16.10;97033.00;;;;5007227;28;20237;-86
2022/01/22 12:36:40;;;;;;;0.43;0.20;;;15.50;49.40;12.60;96996.00;;;;5007759;28;20202;-86
2022/01/22 12:39:30;;;;;;;0.83;0.27;;;15.30;46.40;12.90;96985.00;;;;5004352;28;20214;-85
2022/01/22 12:42:27;;;;;;;0.30;0.20;;;14.70;48.20;13.70;97012.00;;;;5008179;28;20201;-86
2022/01/22 12:45:16;;;;;;;0.20;0.10;;;14.40;47.50;13.10;97031.00;;;;4996643;28;20198;-86
2022/01/22 12:48:06;;;;;;;0.20;0.10;;;14.40;47.20;11.30;97065.00;;;;4993732;28;20254;-87
2022/01/22 12:51:01;;;;;;;0.20;0.17;;;14.00;47.00;11.40;97076.00;;;;4999409;28;20209;-86
2022/01/22 12:53:50;;;;;;;0.20;0.20;;;13.40;48.10;13.20;97062.00;;;;5003375;28;20230;-84
2022/01/22 12:56:51;;;;;;;0.27;0.27;;;13.10;49.30;10.90;97042.00;;;;5002215;28;21221;-85
2022/01/22 12:59:49;;;;;;;0.20;0.20;;;12.70;48.20;11.20;97104.00;;;;4997462;28;20670;-86
2022/01/22 13:02:45;;;;;;;0.20;0.20;;;12.40;49.00;11.70;97074.00;;;;4998279;28;20221;-85
2022/01/22 13:05:35;;;;;;;0.20;0.20;;;12.10;50.10;10.80;97073.00;;;;4999813;28;20221;-85
2022/01/22 13:08:28;;;;;;;0.30;0.10;;;12.20;49.30;9.30;97044.00;;;;4996514;28;20452;-85
2022/01/22 13:11:20;;;;;;;0.50;0.20;;;11.70;49.40;9.50;97072.00;;;;4999600;28;20577;-86
2022/01/22 13:14:11;;;;;;;0.20;0.15;;;10.90;50.50;10.40;97137.00;;;;4996687;28;20549;-85
2022/01/22 13:17:00;;;;;;;1.00;0.20;;;12.10;51.80;8.80;97147.00;;;;4997462;28;20420;-84
2022/01/22 13:19:49;;;;;;;0.30;0.30;;;10.30;51.30;9.70;97053.00;;;;4998020;28;20209;-84
2022/01/22 13:22:40;;;;;;;0.25;0.20;;;10.10;52.40;9.60;97068.00;;;;4997259;28;20449;-86
2022/01/22 13:25:29;;;;;;;1.37;0.40;;;10.20;52.00;10.90;97076.00;;;;4998073;28;20206;-85
2022/01/22 13:28:18;;;;;;;0.40;0.20;;;10.40;51.80;10.10;97079.00;;;;5001161;28;20248;-84
2022/01/22 13:31:18;;;;;;;7.30;0.40;;;11.10;50.70;9.90;97164.00;;;;4999794;28;20221;-85
2022/01/22 13:34:23;;;;;;;0.80;0.30;;;11.20;50.20;10.40;97099.00;;;;4999723;28;20626;-85
2022/01/22 13:50:06;;;;;;;0.20;0.20;;;12.40;47.30;10.70;97227.00;;;;4961045;28;20198;-86
2022/01/22 13:52:54;;;;;;;0.20;0.20;;;12.30;47.20;10.40;97161.00;;;;5001263;28;20261;-85
2022/01/22 13:55:43;;;;;;;0.20;0.20;;;11.90;47.20;10.80;97225.00;;;;5002242;28;20213;-85
2022/01/22 13:58:35;;;;;;;0.20;0.20;;;11.70;48.30;10.70;97249.00;;;;5000836;28;20203;-84
2022/01/22 14:01:39;;;;;;;0.30;0.20;;;11.30;48.40;10.60;97206.00;;;;4999738;28;20633;-88
2022/01/22 14:04:42;;;;;;;0.30;0.20;;;11.00;48.20;10.10;97265.00;;;;5005930;28;20232;-85
2022/01/22 14:07:36;;;;;;;0.53;0.53;;;10.70;48.30;9.40;97268.00;;;;5008385;28;20206;-84
2022/01/22 14:10:25;;;;;;;1.70;0.50;;;10.60;48.60;9.50;97291.00;;;;5009627;28;20399;-84
2022/01/22 14:13:14;;;;;;;5.30;1.93;;;10.20;49.00;8.60;97293.00;;;;5007716;28;20226;-84
2022/01/22 14:16:14;;;;;;;0.30;0.30;;;9.80;49.10;9.30;97219.00;;;;5000303;28;20214;-84